sensor_id;sensor_type;location;lat;lon;timestamp;temperature;humidity
67817;DHT22;54614;47.576;7.524;2024-02-14T00:02:24;21.90;59.00
67817;DHT22;54614;47.576;7.524;2024-02-14T00:04:54;22.00;59.00
67817;DHT22;54614;47.576;7.524;2024-02-14T00:07:21;22.00;59.00
67817;DHT22;54614;47.576;7.524;2024-02-14T00:09:47;21.90;59.00
67817;DHT22;54614;47.576;7.524;2024-02-14T00:12:13;22.00;59.00
67817;DHT22;54614;47.576;7.524;2024-02-14T00:14:39;22.00;59.10
67817;DHT22;54614;47.576;7.524;2024-02-14T00:17:05;22.00;59.10
67817;DHT22;54614;47.576;7.524;2024-02-14T00:19:32;22.00;59.10
67817;DHT22;54614;47.576;7.524;2024-02-14T00:21:58;22.00;59.10
67817;DHT22;54614;47.576;7.524;2024-02-14T00:24:23;22.00;59.10
67817;DHT22;54614;47.576;7.524;2024-02-14T00:26:50;21.90;59.10
67817;DHT22;54614;47.576;7.524;2024-02-14T00:29:16;21.90;59.10
67817;DHT22;54614;47.576;7.524;2024-02-14T00:31:42;21.90;59.10
67817;DHT22;54614;47.576;7.524;2024-02-14T00:34:10;21.90;59.00
67817;DHT22;54614;47.576;7.524;2024-02-14T00:36:36;21.90;59.10
67817;DHT22;54614;47.576;7.524;2024-02-14T00:39:02;21.90;59.10
67817;DHT22;54614;47.576;7.524;2024-02-14T00:41:28;21.90;59.10
67817;DHT22;54614;47.576;7.524;2024-02-14T00:43:56;21.90;59.10
67817;DHT22;54614;47.576;7.524;2024-02-14T00:46:22;21.90;59.10
67817;DHT22;54614;47.576;7.524;2024-02-14T00:48:48;21.90;59.10
67817;DHT22;54614;47.576;7.524;2024-02-14T00:51:13;21.90;59.10
67817;DHT22;54614;47.576;7.524;2024-02-14T00:53:40;21.90;59.20
67817;DHT22;54614;47.576;7.524;2024-02-14T00:56:06;21.90;59.10
67817;DHT22;54614;47.576;7.524;2024-02-14T00:58:32;21.90;59.20
67817;DHT22;54614;47.576;7.524;2024-02-14T01:00:58;21.90;59.20
67817;DHT22;54614;47.576;7.524;2024-02-14T01:03:24;21.90;59.20
67817;DHT22;54614;47.576;7.524;2024-02-14T01:05:49;21.90;59.20
67817;DHT22;54614;47.576;7.524;2024-02-14T01:08:15;21.90;59.20
67817;DHT22;54614;47.576;7.524;2024-02-14T01:10:42;21.90;59.20
67817;DHT22;54614;47.576;7.524;2024-02-14T01:13:08;21.90;59.20
67817;DHT22;54614;47.576;7.524;2024-02-14T01:15:34;21.90;59.20
67817;DHT22;54614;47.576;7.524;2024-02-14T01:18:00;21.90;59.20
67817;DHT22;54614;47.576;7.524;2024-02-14T01:20:26;21.90;59.20
67817;DHT22;54614;47.576;7.524;2024-02-14T01:22:51;21.90;59.20
67817;DHT22;54614;47.576;7.524;2024-02-14T01:25:18;21.90;59.20
67817;DHT22;54614;47.576;7.524;2024-02-14T01:27:44;21.90;59.20
67817;DHT22;54614;47.576;7.524;2024-02-14T01:30:10;21.90;59.20
67817;DHT22;54614;47.576;7.524;2024-02-14T01:32:37;21.90;59.20
67817;DHT22;54614;47.576;7.524;2024-02-14T01:35:04;21.90;59.20
67817;DHT22;54614;47.576;7.524;2024-02-14T01:37:30;21.80;59.20
67817;DHT22;54614;47.576;7.524;2024-02-14T01:39:56;21.90;59.20
67817;DHT22;54614;47.576;7.524;2024-02-14T01:42:22;21.80;59.20
67817;DHT22;54614;47.576;7.524;2024-02-14T01:44:47;21.90;59.20
67817;DHT22;54614;47.576;7.524;2024-02-14T01:47:13;21.90;59.20
67817;DHT22;54614;47.576;7.524;2024-02-14T01:49:40;21.80;59.20
67817;DHT22;54614;47.576;7.524;2024-02-14T01:52:09;21.80;59.20
67817;DHT22;54614;47.576;7.524;2024-02-14T01:54:36;21.80;59.20
67817;DHT22;54614;47.576;7.524;2024-02-14T01:57:02;21.80;59.20
67817;DHT22;54614;47.576;7.524;2024-02-14T01:59:29;21.80;59.20
67817;DHT22;54614;47.576;7.524;2024-02-14T02:01:55;21.80;59.20
67817;DHT22;54614;47.576;7.524;2024-02-14T02:04:22;21.80;59.20
67817;DHT22;54614;47.576;7.524;2024-02-14T02:06:48;21.80;59.20
67817;DHT22;54614;47.576;7.524;2024-02-14T02:09:14;21.80;59.20
67817;DHT22;54614;47.576;7.524;2024-02-14T02:11:48;21.80;59.20
67817;DHT22;54614;47.576;7.524;2024-02-14T02:14:15;21.80;59.20
67817;DHT22;54614;47.576;7.524;2024-02-14T02:16:44;21.80;59.20
67817;DHT22;54614;47.576;7.524;2024-02-14T02:19:11;21.80;59.20
67817;DHT22;54614;47.576;7.524;2024-02-14T02:21:37;21.80;59.20
67817;DHT22;54614;47.576;7.524;2024-02-14T02:24:04;21.80;59.20
67817;DHT22;54614;47.576;7.524;2024-02-14T02:26:30;21.80;59.20
67817;DHT22;54614;47.576;7.524;2024-02-14T02:28:56;21.80;59.30
67817;DHT22;54614;47.576;7.524;2024-02-14T02:31:22;21.80;59.20
67817;DHT22;54614;47.576;7.524;2024-02-14T02:33:48;21.80;59.20
67817;DHT22;54614;47.576;7.524;2024-02-14T02:36:15;21.80;59.20
67817;DHT22;54614;47.576;7.524;2024-02-14T02:38:41;21.80;59.30
67817;DHT22;54614;47.576;7.524;2024-02-14T02:41:07;21.80;59.20
67817;DHT22;54614;47.576;7.524;2024-02-14T02:43:33;21.80;59.30
67817;DHT22;54614;47.576;7.524;2024-02-14T02:46:00;21.80;59.30
67817;DHT22;54614;47.576;7.524;2024-02-14T02:48:27;21.80;59.20
67817;DHT22;54614;47.576;7.524;2024-02-14T02:50:53;21.70;59.20
67817;DHT22;54614;47.576;7.524;2024-02-14T02:53:19;21.80;59.30
67817;DHT22;54614;47.576;7.524;2024-02-14T02:55:45;21.70;59.30
67817;DHT22;54614;47.576;7.524;2024-02-14T02:58:11;21.70;59.30
67817;DHT22;54614;47.576;7.524;2024-02-14T03:00:37;21.70;59.30
67817;DHT22;54614;47.576;7.524;2024-02-14T03:03:03;21.70;59.30
67817;DHT22;54614;47.576;7.524;2024-02-14T03:05:33;21.70;59.20
67817;DHT22;54614;47.576;7.524;2024-02-14T03:08:00;21.70;59.20
67817;DHT22;54614;47.576;7.524;2024-02-14T03:10:26;21.70;59.30
67817;DHT22;54614;47.576;7.524;2024-02-14T03:12:53;21.70;59.20
67817;DHT22;54614;47.576;7.524;2024-02-14T06:36:54;21.50;60.00
67817;DHT22;54614;47.576;7.524;2024-02-14T06:39:20;21.50;60.10
67817;DHT22;54614;47.576;7.524;2024-02-14T06:41:46;21.50;60.00
67817;DHT22;54614;47.576;7.524;2024-02-14T06:44:13;21.50;59.10
67817;DHT22;54614;47.576;7.524;2024-02-14T06:46:39;21.50;58.30
67817;DHT22;54614;47.576;7.524;2024-02-14T06:49:05;21.50;59.10
67817;DHT22;54614;47.576;7.524;2024-02-14T06:51:31;21.50;58.70
67817;DHT22;54614;47.576;7.524;2024-02-14T06:53:56;21.50;58.80
67817;DHT22;54614;47.576;7.524;2024-02-14T06:56:22;21.60;58.40
67817;DHT22;54614;47.576;7.524;2024-02-14T06:58:48;21.50;58.60
67817;DHT22;54614;47.576;7.524;2024-02-14T07:01:20;21.50;58.80
67817;DHT22;54614;47.576;7.524;2024-02-14T07:03:49;21.50;58.50
67817;DHT22;54614;47.576;7.524;2024-02-14T07:06:15;21.60;59.90
67817;DHT22;54614;47.576;7.524;2024-02-14T07:08:42;21.60;59.90
67817;DHT22;54614;47.576;7.524;2024-02-14T07:11:08;21.60;60.20
67817;DHT22;54614;47.576;7.524;2024-02-14T07:13:34;21.70;60.80
67817;DHT22;54614;47.576;7.524;2024-02-14T07:16:00;21.60;61.50
67817;DHT22;54614;47.576;7.524;2024-02-14T07:18:26;21.70;60.80
67817;DHT22;54614;47.576;7.524;2024-02-14T07:20:52;21.70;60.30
67817;DHT22;54614;47.576;7.524;2024-02-14T07:23:20;21.70;59.70
67817;DHT22;54614;47.576;7.524;2024-02-14T07:25:47;21.80;59.50
67817;DHT22;54614;47.576;7.524;2024-02-14T07:28:13;21.70;59.50
67817;DHT22;54614;47.576;7.524;2024-02-14T07:30:38;21.80;59.40
67817;DHT22;54614;47.576;7.524;2024-02-14T07:33:04;21.80;59.10
67817;DHT22;54614;47.576;7.524;2024-02-14T07:35:30;21.80;59.10
67817;DHT22;54614;47.576;7.524;2024-02-14T07:37:56;21.80;59.20
67817;DHT22;54614;47.576;7.524;2024-02-14T07:40:22;21.80;58.60
67817;DHT22;54614;47.576;7.524;2024-02-14T07:42:48;21.80;58.60
67817;DHT22;54614;47.576;7.524;2024-02-14T07:45:14;21.80;58.20
67817;DHT22;54614;47.576;7.524;2024-02-14T07:47:40;21.80;58.00
67817;DHT22;54614;47.576;7.524;2024-02-14T07:50:07;21.70;57.90
67817;DHT22;54614;47.576;7.524;2024-02-14T07:52:33;21.70;57.70
67817;DHT22;54614;47.576;7.524;2024-02-14T07:54:59;21.70;57.50
67817;DHT22;54614;47.576;7.524;2024-02-14T07:57:25;21.70;57.20
67817;DHT22;54614;47.576;7.524;2024-02-14T07:59:51;21.70;57.10
67817;DHT22;54614;47.576;7.524;2024-02-14T08:02:18;21.70;57.10
67817;DHT22;54614;47.576;7.524;2024-02-14T08:04:45;21.60;56.90
67817;DHT22;54614;47.576;7.524;2024-02-14T08:07:11;21.60;56.80
67817;DHT22;54614;47.576;7.524;2024-02-14T08:09:37;21.60;56.70
67817;DHT22;54614;47.576;7.524;2024-02-14T08:12:05;21.60;56.60
67817;DHT22;54614;47.576;7.524;2024-02-14T08:14:31;21.60;56.50
67817;DHT22;54614;47.576;7.524;2024-02-14T08:16:57;21.60;56.50
67817;DHT22;54614;47.576;7.524;2024-02-14T08:19:23;21.50;56.40
67817;DHT22;54614;47.576;7.524;2024-02-14T08:21:49;21.60;56.50
67817;DHT22;54614;47.576;7.524;2024-02-14T08:24:15;21.50;56.40
67817;DHT22;54614;47.576;7.524;2024-02-14T08:26:41;21.50;56.20
67817;DHT22;54614;47.576;7.524;2024-02-14T08:29:06;21.50;56.20
67817;DHT22;54614;47.576;7.524;2024-02-14T08:31:32;21.50;56.20
67817;DHT22;54614;47.576;7.524;2024-02-14T08:33:59;21.50;56.30
67817;DHT22;54614;47.576;7.524;2024-02-14T08:36:24;21.60;56.30
67817;DHT22;54614;47.576;7.524;2024-02-14T08:38:50;21.60;56.40
67817;DHT22;54614;47.576;7.524;2024-02-14T08:41:16;21.60;56.40
67817;DHT22;54614;47.576;7.524;2024-02-14T08:43:43;21.60;56.70
67817;DHT22;54614;47.576;7.524;2024-02-14T08:46:10;21.50;57.00
67817;DHT22;54614;47.576;7.524;2024-02-14T08:48:37;21.50;57.10
67817;DHT22;54614;47.576;7.524;2024-02-14T08:51:08;21.50;57.40
67817;DHT22;54614;47.576;7.524;2024-02-14T08:53:36;21.60;57.80
67817;DHT22;54614;47.576;7.524;2024-02-14T08:56:04;21.60;58.00
67817;DHT22;54614;47.576;7.524;2024-02-14T08:58:32;21.60;58.10
67817;DHT22;54614;47.576;7.524;2024-02-14T09:00:58;21.60;58.20
67817;DHT22;54614;47.576;7.524;2024-02-14T09:03:24;21.70;58.40
67817;DHT22;54614;47.576;7.524;2024-02-14T09:05:51;21.70;58.60
67817;DHT22;54614;47.576;7.524;2024-02-14T09:08:19;21.70;58.80
67817;DHT22;54614;47.576;7.524;2024-02-14T09:10:47;21.60;59.20
67817;DHT22;54614;47.576;7.524;2024-02-14T09:13:14;21.60;59.10
67817;DHT22;54614;47.576;7.524;2024-02-14T09:15:40;21.70;59.30
67817;DHT22;54614;47.576;7.524;2024-02-14T09:18:07;21.70;59.30
67817;DHT22;54614;47.576;7.524;2024-02-14T09:20:34;21.70;59.50
67817;DHT22;54614;47.576;7.524;2024-02-14T09:23:00;21.70;59.60
67817;DHT22;54614;47.576;7.524;2024-02-14T09:25:27;21.70;59.30
67817;DHT22;54614;47.576;7.524;2024-02-14T09:27:54;21.70;59.50
67817;DHT22;54614;47.576;7.524;2024-02-14T09:30:21;21.70;59.50
67817;DHT22;54614;47.576;7.524;2024-02-14T09:32:47;21.70;59.50
67817;DHT22;54614;47.576;7.524;2024-02-14T09:35:13;21.70;59.50
67817;DHT22;54614;47.576;7.524;2024-02-14T09:37:40;21.80;59.70
67817;DHT22;54614;47.576;7.524;2024-02-14T09:40:10;21.80;61.00
67817;DHT22;54614;47.576;7.524;2024-02-14T09:42:51;22.00;60.80
67817;DHT22;54614;47.576;7.524;2024-02-14T09:45:25;22.10;60.80
67817;DHT22;54614;47.576;7.524;2024-02-14T09:47:54;22.10;60.60
67817;DHT22;54614;47.576;7.524;2024-02-14T09:50:21;22.10;60.50
67817;DHT22;54614;47.576;7.524;2024-02-14T09:52:50;22.20;60.60
67817;DHT22;54614;47.576;7.524;2024-02-14T09:55:19;22.10;60.00
67817;DHT22;54614;47.576;7.524;2024-02-14T09:57:49;22.10;60.00
67817;DHT22;54614;47.576;7.524;2024-02-14T10:00:15;22.00;59.90
67817;DHT22;54614;47.576;7.524;2024-02-14T10:02:42;22.00;59.80
67817;DHT22;54614;47.576;7.524;2024-02-14T10:05:09;22.00;59.70
67817;DHT22;54614;47.576;7.524;2024-02-14T10:07:43;22.10;59.60
67817;DHT22;54614;47.576;7.524;2024-02-14T10:10:10;22.10;59.70
67817;DHT22;54614;47.576;7.524;2024-02-14T10:12:37;22.10;59.60
67817;DHT22;54614;47.576;7.524;2024-02-14T10:15:04;22.10;59.60
67817;DHT22;54614;47.576;7.524;2024-02-14T10:17:33;22.10;59.50
67817;DHT22;54614;47.576;7.524;2024-02-14T10:20:01;22.20;59.60
67817;DHT22;54614;47.576;7.524;2024-02-14T10:22:35;22.10;59.50
67817;DHT22;54614;47.576;7.524;2024-02-14T10:25:05;22.20;59.60
67817;DHT22;54614;47.576;7.524;2024-02-14T10:27:39;22.10;59.40
67817;DHT22;54614;47.576;7.524;2024-02-14T10:30:08;22.20;59.50
67817;DHT22;54614;47.576;7.524;2024-02-14T10:32:41;22.30;59.50
67817;DHT22;54614;47.576;7.524;2024-02-14T10:35:14;22.20;59.60
67817;DHT22;54614;47.576;7.524;2024-02-14T10:37:41;22.30;59.40
67817;DHT22;54614;47.576;7.524;2024-02-14T10:40:08;22.30;59.40
67817;DHT22;54614;47.576;7.524;2024-02-14T10:42:37;22.30;59.30
67817;DHT22;54614;47.576;7.524;2024-02-14T10:45:04;22.40;59.40
67817;DHT22;54614;47.576;7.524;2024-02-14T10:47:35;22.40;59.50
67817;DHT22;54614;47.576;7.524;2024-02-14T10:50:04;22.40;59.30
67817;DHT22;54614;47.576;7.524;2024-02-14T10:52:34;22.40;59.50
67817;DHT22;54614;47.576;7.524;2024-02-14T10:55:05;22.40;59.50
67817;DHT22;54614;47.576;7.524;2024-02-14T10:57:33;22.50;59.30
67817;DHT22;54614;47.576;7.524;2024-02-14T11:00:03;22.50;59.40
67817;DHT22;54614;47.576;7.524;2024-02-14T11:02:36;22.50;60.00
67817;DHT22;54614;47.576;7.524;2024-02-14T11:05:04;22.50;59.30
67817;DHT22;54614;47.576;7.524;2024-02-14T11:07:34;22.60;59.20
67817;DHT22;54614;47.576;7.524;2024-02-14T11:10:07;22.60;59.20
67817;DHT22;54614;47.576;7.524;2024-02-14T11:12:40;22.60;59.40
67817;DHT22;54614;47.576;7.524;2024-02-14T11:15:12;22.60;59.30
67817;DHT22;54614;47.576;7.524;2024-02-14T11:17:51;22.60;59.60
67817;DHT22;54614;47.576;7.524;2024-02-14T11:20:35;22.60;60.00
67817;DHT22;54614;47.576;7.524;2024-02-14T11:23:04;22.70;60.70
67817;DHT22;54614;47.576;7.524;2024-02-14T11:25:37;22.70;61.50
67817;DHT22;54614;47.576;7.524;2024-02-14T11:30:47;22.70;61.40
67817;DHT22;54614;47.576;7.524;2024-02-14T11:33:20;22.70;61.20
67817;DHT22;54614;47.576;7.524;2024-02-14T11:35:52;22.70;61.50
67817;DHT22;54614;47.576;7.524;2024-02-14T11:38:22;22.70;62.30
67817;DHT22;54614;47.576;7.524;2024-02-14T11:40:55;22.70;62.90
67817;DHT22;54614;47.576;7.524;2024-02-14T11:43:24;22.70;63.40
67817;DHT22;54614;47.576;7.524;2024-02-14T11:45:51;22.70;63.20
67817;DHT22;54614;47.576;7.524;2024-02-14T11:48:18;22.70;63.50
67817;DHT22;54614;47.576;7.524;2024-02-14T11:50:53;22.70;63.20
67817;DHT22;54614;47.576;7.524;2024-02-14T11:53:21;22.70;63.10
67817;DHT22;54614;47.576;7.524;2024-02-14T11:55:50;22.70;63.10
67817;DHT22;54614;47.576;7.524;2024-02-14T11:58:17;22.70;62.80
67817;DHT22;54614;47.576;7.524;2024-02-14T12:00:46;22.70;62.80
67817;DHT22;54614;47.576;7.524;2024-02-14T12:03:20;22.70;62.90
67817;DHT22;54614;47.576;7.524;2024-02-14T12:05:53;22.70;63.00
67817;DHT22;54614;47.576;7.524;2024-02-14T12:08:23;22.70;62.90
67817;DHT22;54614;47.576;7.524;2024-02-14T12:10:50;22.70;62.80
67817;DHT22;54614;47.576;7.524;2024-02-14T12:13:20;22.70;62.50
67817;DHT22;54614;47.576;7.524;2024-02-14T12:15:49;22.70;62.60
67817;DHT22;54614;47.576;7.524;2024-02-14T12:18:18;22.70;62.50
67817;DHT22;54614;47.576;7.524;2024-02-14T12:20:46;22.70;62.10
67817;DHT22;54614;47.576;7.524;2024-02-14T12:23:18;22.70;61.80
67817;DHT22;54614;47.576;7.524;2024-02-14T12:25:46;22.70;61.60
67817;DHT22;54614;47.576;7.524;2024-02-14T12:28:22;22.80;61.50
67817;DHT22;54614;47.576;7.524;2024-02-14T12:30:50;22.70;61.30
67817;DHT22;54614;47.576;7.524;2024-02-14T12:33:22;22.80;61.30
67817;DHT22;54614;47.576;7.524;2024-02-14T12:35:57;22.70;61.30
67817;DHT22;54614;47.576;7.524;2024-02-14T12:38:25;22.70;61.30
67817;DHT22;54614;47.576;7.524;2024-02-14T12:40:51;22.70;61.40
67817;DHT22;54614;47.576;7.524;2024-02-14T12:43:21;22.70;60.90
67817;DHT22;54614;47.576;7.524;2024-02-14T12:45:48;22.70;60.80
67817;DHT22;54614;47.576;7.524;2024-02-14T12:48:23;22.70;60.40
67817;DHT22;54614;47.576;7.524;2024-02-14T12:50:54;22.70;61.00
67817;DHT22;54614;47.576;7.524;2024-02-14T12:53:20;22.60;60.10
67817;DHT22;54614;47.576;7.524;2024-02-14T12:55:51;22.60;60.00
67817;DHT22;54614;47.576;7.524;2024-02-14T12:58:17;22.60;59.80
67817;DHT22;54614;47.576;7.524;2024-02-14T13:00:44;22.60;59.60
67817;DHT22;54614;47.576;7.524;2024-02-14T13:03:11;22.60;59.50
67817;DHT22;54614;47.576;7.524;2024-02-14T13:05:37;22.60;59.20
67817;DHT22;54614;47.576;7.524;2024-02-14T13:08:06;22.60;58.90
67817;DHT22;54614;47.576;7.524;2024-02-14T13:10:32;22.60;59.20
67817;DHT22;54614;47.576;7.524;2024-02-14T13:12:59;22.60;59.30
67817;DHT22;54614;47.576;7.524;2024-02-14T13:15:24;22.60;59.60
67817;DHT22;54614;47.576;7.524;2024-02-14T13:17:50;22.60;59.80
67817;DHT22;54614;47.576;7.524;2024-02-14T13:20:16;22.60;59.80
67817;DHT22;54614;47.576;7.524;2024-02-14T13:22:42;22.60;59.90
67817;DHT22;54614;47.576;7.524;2024-02-14T13:25:08;22.60;59.90
67817;DHT22;54614;47.576;7.524;2024-02-14T13:27:35;22.60;60.00
67817;DHT22;54614;47.576;7.524;2024-02-14T13:30:04;22.60;60.00
67817;DHT22;54614;47.576;7.524;2024-02-14T13:32:31;22.60;60.00
67817;DHT22;54614;47.576;7.524;2024-02-14T13:34:57;22.60;59.90
67817;DHT22;54614;47.576;7.524;2024-02-14T13:37:23;22.50;60.00
67817;DHT22;54614;47.576;7.524;2024-02-14T13:39:49;22.50;60.00
67817;DHT22;54614;47.576;7.524;2024-02-14T13:42:15;22.60;60.00
67817;DHT22;54614;47.576;7.524;2024-02-14T13:44:41;22.50;60.00
67817;DHT22;54614;47.576;7.524;2024-02-14T13:47:08;22.50;60.00
67817;DHT22;54614;47.576;7.524;2024-02-14T13:49:34;22.50;60.00
67817;DHT22;54614;47.576;7.524;2024-02-14T13:52:00;22.50;60.00
67817;DHT22;54614;47.576;7.524;2024-02-14T13:54:25;22.50;60.00
67817;DHT22;54614;47.576;7.524;2024-02-14T13:56:51;22.50;60.10
67817;DHT22;54614;47.576;7.524;2024-02-14T13:59:18;22.50;60.00
67817;DHT22;54614;47.576;7.524;2024-02-14T14:01:46;22.50;60.10
67817;DHT22;54614;47.576;7.524;2024-02-14T14:04:13;22.50;60.00
67817;DHT22;54614;47.576;7.524;2024-02-14T14:06:40;22.50;60.40
67817;DHT22;54614;47.576;7.524;2024-02-14T14:09:07;22.50;60.70
67817;DHT22;54614;47.576;7.524;2024-02-14T14:11:36;22.60;60.50
67817;DHT22;54614;47.576;7.524;2024-02-14T14:14:03;22.60;60.80
67817;DHT22;54614;47.576;7.524;2024-02-14T14:16:30;22.60;60.50
67817;DHT22;54614;47.576;7.524;2024-02-14T14:18:59;22.60;60.30
67817;DHT22;54614;47.576;7.524;2024-02-14T14:21:26;22.60;60.30
67817;DHT22;54614;47.576;7.524;2024-02-14T14:23:52;22.60;60.30
67817;DHT22;54614;47.576;7.524;2024-02-14T14:26:18;22.60;60.20
67817;DHT22;54614;47.576;7.524;2024-02-14T14:28:45;22.60;60.40
67817;DHT22;54614;47.576;7.524;2024-02-14T14:31:12;22.60;60.20
67817;DHT22;54614;47.576;7.524;2024-02-14T14:33:38;22.50;60.20
67817;DHT22;54614;47.576;7.524;2024-02-14T14:36:08;22.60;60.20
67817;DHT22;54614;47.576;7.524;2024-02-14T14:38:34;22.50;60.10
67817;DHT22;54614;47.576;7.524;2024-02-14T14:41:01;22.50;60.20
67817;DHT22;54614;47.576;7.524;2024-02-14T14:43:30;22.50;60.20
67817;DHT22;54614;47.576;7.524;2024-02-14T14:45:56;22.60;60.30
67817;DHT22;54614;47.576;7.524;2024-02-14T14:48:22;22.60;60.30
67817;DHT22;54614;47.576;7.524;2024-02-14T14:50:48;22.50;60.30
67817;DHT22;54614;47.576;7.524;2024-02-14T14:53:14;22.50;60.30
67817;DHT22;54614;47.576;7.524;2024-02-14T14:55:54;22.50;60.30
67817;DHT22;54614;47.576;7.524;2024-02-14T14:58:23;22.50;60.30
67817;DHT22;54614;47.576;7.524;2024-02-14T15:00:55;22.50;60.30
67817;DHT22;54614;47.576;7.524;2024-02-14T15:03:23;22.50;60.30
67817;DHT22;54614;47.576;7.524;2024-02-14T15:05:49;22.50;60.30
67817;DHT22;54614;47.576;7.524;2024-02-14T15:08:16;22.50;60.30
67817;DHT22;54614;47.576;7.524;2024-02-14T15:10:51;22.50;60.30
67817;DHT22;54614;47.576;7.524;2024-02-14T15:13:18;22.50;60.40
67817;DHT22;54614;47.576;7.524;2024-02-14T15:15:50;22.50;60.40
67817;DHT22;54614;47.576;7.524;2024-02-14T15:18:16;22.50;60.50
67817;DHT22;54614;47.576;7.524;2024-02-14T15:20:42;22.50;60.50
67817;DHT22;54614;47.576;7.524;2024-02-14T15:23:08;22.50;60.70
67817;DHT22;54614;47.576;7.524;2024-02-14T15:25:34;22.50;60.70
67817;DHT22;54614;47.576;7.524;2024-02-14T15:28:09;22.50;60.70
67817;DHT22;54614;47.576;7.524;2024-02-14T15:30:47;22.40;60.70
67817;DHT22;54614;47.576;7.524;2024-02-14T15:33:31;22.40;60.80
67817;DHT22;54614;47.576;7.524;2024-02-14T15:35:57;22.40;60.70
67817;DHT22;54614;47.576;7.524;2024-02-14T15:38:26;22.50;60.70
67817;DHT22;54614;47.576;7.524;2024-02-14T15:40:54;22.50;60.70
67817;DHT22;54614;47.576;7.524;2024-02-14T15:43:26;22.50;60.70
67817;DHT22;54614;47.576;7.524;2024-02-14T15:45:54;22.40;60.80
67817;DHT22;54614;47.576;7.524;2024-02-14T15:48:20;22.40;60.90
67817;DHT22;54614;47.576;7.524;2024-02-14T15:50:46;22.40;60.90
67817;DHT22;54614;47.576;7.524;2024-02-14T15:53:13;22.40;60.90
67817;DHT22;54614;47.576;7.524;2024-02-14T15:55:41;22.40;61.00
67817;DHT22;54614;47.576;7.524;2024-02-14T15:58:07;22.40;60.90
67817;DHT22;54614;47.576;7.524;2024-02-14T16:00:35;22.40;60.80
67817;DHT22;54614;47.576;7.524;2024-02-14T16:03:01;22.40;60.90
67817;DHT22;54614;47.576;7.524;2024-02-14T16:05:29;22.40;60.90
67817;DHT22;54614;47.576;7.524;2024-02-14T16:07:55;22.40;60.90
67817;DHT22;54614;47.576;7.524;2024-02-14T16:10:21;22.40;61.00
67817;DHT22;54614;47.576;7.524;2024-02-14T16:12:48;22.40;60.90
67817;DHT22;54614;47.576;7.524;2024-02-14T16:15:15;22.40;61.00
67817;DHT22;54614;47.576;7.524;2024-02-14T16:17:43;22.40;61.10
67817;DHT22;54614;47.576;7.524;2024-02-14T16:20:12;22.40;61.20
67817;DHT22;54614;47.576;7.524;2024-02-14T16:22:39;22.40;61.10
67817;DHT22;54614;47.576;7.524;2024-02-14T16:25:08;22.40;61.20
67817;DHT22;54614;47.576;7.524;2024-02-14T16:27:36;22.40;61.30
67817;DHT22;54614;47.576;7.524;2024-02-14T16:30:05;22.40;61.30
67817;DHT22;54614;47.576;7.524;2024-02-14T16:32:32;22.40;61.50
67817;DHT22;54614;47.576;7.524;2024-02-14T16:34:58;22.40;61.70
67817;DHT22;54614;47.576;7.524;2024-02-14T16:37:24;22.40;61.80
67817;DHT22;54614;47.576;7.524;2024-02-14T16:39:50;22.40;62.50
67817;DHT22;54614;47.576;7.524;2024-02-14T16:42:16;22.40;62.10
67817;DHT22;54614;47.576;7.524;2024-02-14T16:44:43;22.40;62.10
67817;DHT22;54614;47.576;7.524;2024-02-14T16:47:10;22.40;62.20
67817;DHT22;54614;47.576;7.524;2024-02-14T16:49:36;22.40;62.40
67817;DHT22;54614;47.576;7.524;2024-02-14T16:52:03;22.40;62.20
67817;DHT22;54614;47.576;7.524;2024-02-14T16:54:30;22.40;62.30
67817;DHT22;54614;47.576;7.524;2024-02-14T16:56:58;22.40;62.50
67817;DHT22;54614;47.576;7.524;2024-02-14T16:59:34;22.40;62.30
67817;DHT22;54614;47.576;7.524;2024-02-14T17:02:03;22.40;62.30
67817;DHT22;54614;47.576;7.524;2024-02-14T17:04:34;22.40;62.30
67817;DHT22;54614;47.576;7.524;2024-02-14T17:07:01;22.40;62.40
67817;DHT22;54614;47.576;7.524;2024-02-14T17:09:27;22.40;62.20
67817;DHT22;54614;47.576;7.524;2024-02-14T17:11:52;22.40;62.20
67817;DHT22;54614;47.576;7.524;2024-02-14T17:14:19;22.40;62.10
67817;DHT22;54614;47.576;7.524;2024-02-14T17:16:48;22.40;62.00
67817;DHT22;54614;47.576;7.524;2024-02-14T17:19:15;22.40;62.10
67817;DHT22;54614;47.576;7.524;2024-02-14T17:21:42;22.40;62.00
67817;DHT22;54614;47.576;7.524;2024-02-14T17:24:08;22.40;62.00
67817;DHT22;54614;47.576;7.524;2024-02-14T17:26:33;22.40;61.80
67817;DHT22;54614;47.576;7.524;2024-02-14T17:28:59;22.40;61.80
67817;DHT22;54614;47.576;7.524;2024-02-14T17:31:25;22.40;61.70
67817;DHT22;54614;47.576;7.524;2024-02-14T17:33:51;22.40;61.60
67817;DHT22;54614;47.576;7.524;2024-02-14T17:36:16;22.40;61.70
67817;DHT22;54614;47.576;7.524;2024-02-14T17:38:42;22.30;61.60
67817;DHT22;54614;47.576;7.524;2024-02-14T17:41:08;22.30;61.60
67817;DHT22;54614;47.576;7.524;2024-02-14T17:43:34;22.30;61.60
67817;DHT22;54614;47.576;7.524;2024-02-14T17:46:05;22.40;61.70
67817;DHT22;54614;47.576;7.524;2024-02-14T17:48:31;22.30;61.70
67817;DHT22;54614;47.576;7.524;2024-02-14T17:50:58;22.30;61.70
67817;DHT22;54614;47.576;7.524;2024-02-14T17:53:25;22.30;61.70
67817;DHT22;54614;47.576;7.524;2024-02-14T17:55:53;22.30;61.70
67817;DHT22;54614;47.576;7.524;2024-02-14T17:58:19;22.40;61.90
67817;DHT22;54614;47.576;7.524;2024-02-14T18:00:46;22.30;61.70
67817;DHT22;54614;47.576;7.524;2024-02-14T18:03:13;22.40;61.70
67817;DHT22;54614;47.576;7.524;2024-02-14T18:05:39;22.40;61.70
67817;DHT22;54614;47.576;7.524;2024-02-14T18:08:07;22.40;61.60
67817;DHT22;54614;47.576;7.524;2024-02-14T18:10:34;22.40;61.60
67817;DHT22;54614;47.576;7.524;2024-02-14T18:13:00;22.40;61.70
67817;DHT22;54614;47.576;7.524;2024-02-14T18:15:26;22.40;61.70
67817;DHT22;54614;47.576;7.524;2024-02-14T18:17:52;22.40;61.70
67817;DHT22;54614;47.576;7.524;2024-02-14T18:20:18;22.40;61.70
67817;DHT22;54614;47.576;7.524;2024-02-14T18:22:43;22.40;61.70
67817;DHT22;54614;47.576;7.524;2024-02-14T18:25:10;22.40;61.70
67817;DHT22;54614;47.576;7.524;2024-02-14T18:27:38;22.40;61.90
67817;DHT22;54614;47.576;7.524;2024-02-14T18:30:04;22.40;62.30
67817;DHT22;54614;47.576;7.524;2024-02-14T18:32:31;22.40;62.00
67817;DHT22;54614;47.576;7.524;2024-02-14T18:34:58;22.40;61.90
67817;DHT22;54614;47.576;7.524;2024-02-14T18:37:25;22.40;62.00
67817;DHT22;54614;47.576;7.524;2024-02-14T18:39:51;22.40;61.70
67817;DHT22;54614;47.576;7.524;2024-02-14T18:42:18;22.40;61.30
67817;DHT22;54614;47.576;7.524;2024-02-14T18:44:45;22.40;61.40
67817;DHT22;54614;47.576;7.524;2024-02-14T18:47:11;22.40;61.20
67817;DHT22;54614;47.576;7.524;2024-02-14T18:49:37;22.40;60.80
67817;DHT22;54614;47.576;7.524;2024-02-14T18:52:05;22.40;60.70
67817;DHT22;54614;47.576;7.524;2024-02-14T18:54:31;22.40;60.70
67817;DHT22;54614;47.576;7.524;2024-02-14T18:56:58;22.40;60.30